sensor_id;sensor_type;location;lat;lon;timestamp;temperature;humidity
25482;DHT22;13395;50.752;4.268;2023-07-13T00:01:44;17.50;99.90
25482;DHT22;13395;50.752;4.268;2023-07-13T00:04:14;17.40;99.90
25482;DHT22;13395;50.752;4.268;2023-07-13T00:06:40;17.30;99.90
25482;DHT22;13395;50.752;4.268;2023-07-13T00:09:05;17.30;99.90
25482;DHT22;13395;50.752;4.268;2023-07-13T00:11:31;17.40;99.90
25482;DHT22;13395;50.752;4.268;2023-07-13T00:13:57;17.40;99.90
25482;DHT22;13395;50.752;4.268;2023-07-13T00:16:23;17.40;99.90
25482;DHT22;13395;50.752;4.268;2023-07-13T00:18:49;17.40;99.90
25482;DHT22;13395;50.752;4.268;2023-07-13T00:21:14;17.40;99.90
25482;DHT22;13395;50.752;4.268;2023-07-13T00:23:41;17.30;99.90
25482;DHT22;13395;50.752;4.268;2023-07-13T00:26:09;17.20;99.90
25482;DHT22;13395;50.752;4.268;2023-07-13T00:28:35;17.10;99.90
25482;DHT22;13395;50.752;4.268;2023-07-13T00:31:01;17.10;99.90
25482;DHT22;13395;50.752;4.268;2023-07-13T00:33:28;17.20;99.90
25482;DHT22;13395;50.752;4.268;2023-07-13T00:35:57;17.10;99.90
25482;DHT22;13395;50.752;4.268;2023-07-13T00:38:23;17.10;99.90
25482;DHT22;13395;50.752;4.268;2023-07-13T00:40:50;17.00;99.90
25482;DHT22;13395;50.752;4.268;2023-07-13T00:43:20;17.00;99.90
25482;DHT22;13395;50.752;4.268;2023-07-13T00:48:26;17.00;99.90
25482;DHT22;13395;50.752;4.268;2023-07-13T00:50:55;17.00;99.90
25482;DHT22;13395;50.752;4.268;2023-07-13T00:53:23;16.90;99.90
25482;DHT22;13395;50.752;4.268;2023-07-13T00:55:50;16.90;99.90
25482;DHT22;13395;50.752;4.268;2023-07-13T00:58:16;16.90;99.90
25482;DHT22;13395;50.752;4.268;2023-07-13T01:00:42;16.90;99.90
25482;DHT22;13395;50.752;4.268;2023-07-13T01:03:08;16.90;99.90
25482;DHT22;13395;50.752;4.268;2023-07-13T01:05:35;16.90;99.90
25482;DHT22;13395;50.752;4.268;2023-07-13T01:08:03;16.90;99.90
25482;DHT22;13395;50.752;4.268;2023-07-13T01:10:31;16.80;99.90
25482;DHT22;13395;50.752;4.268;2023-07-13T01:13:05;16.90;99.90
25482;DHT22;13395;50.752;4.268;2023-07-13T01:15:41;16.80;99.90
25482;DHT22;13395;50.752;4.268;2023-07-13T01:18:10;16.70;99.90
25482;DHT22;13395;50.752;4.268;2023-07-13T01:20:37;16.80;99.90
25482;DHT22;13395;50.752;4.268;2023-07-13T01:23:05;16.80;99.90
25482;DHT22;13395;50.752;4.268;2023-07-13T01:25:32;16.70;99.90
25482;DHT22;13395;50.752;4.268;2023-07-13T01:27:58;16.70;99.90
25482;DHT22;13395;50.752;4.268;2023-07-13T01:30:24;16.70;99.90
25482;DHT22;13395;50.752;4.268;2023-07-13T01:32:50;16.70;99.90
25482;DHT22;13395;50.752;4.268;2023-07-13T01:35:15;16.60;99.90
25482;DHT22;13395;50.752;4.268;2023-07-13T01:37:42;16.60;99.90
25482;DHT22;13395;50.752;4.268;2023-07-13T01:40:11;16.60;99.90
25482;DHT22;13395;50.752;4.268;2023-07-13T01:42:37;16.60;99.90
25482;DHT22;13395;50.752;4.268;2023-07-13T01:45:03;16.60;99.90
25482;DHT22;13395;50.752;4.268;2023-07-13T01:47:32;16.70;99.90
25482;DHT22;13395;50.752;4.268;2023-07-13T01:49:58;16.70;99.90
25482;DHT22;13395;50.752;4.268;2023-07-13T01:52:23;16.70;99.90
25482;DHT22;13395;50.752;4.268;2023-07-13T01:54:49;16.70;99.90
25482;DHT22;13395;50.752;4.268;2023-07-13T01:57:15;16.60;99.90
25482;DHT22;13395;50.752;4.268;2023-07-13T01:59:41;16.60;99.90
25482;DHT22;13395;50.752;4.268;2023-07-13T02:02:06;16.60;99.90
25482;DHT22;13395;50.752;4.268;2023-07-13T02:04:32;16.60;99.90
25482;DHT22;13395;50.752;4.268;2023-07-13T02:06:58;16.60;99.90
25482;DHT22;13395;50.752;4.268;2023-07-13T02:09:24;16.50;99.90
25482;DHT22;13395;50.752;4.268;2023-07-13T02:11:50;16.50;99.90
25482;DHT22;13395;50.752;4.268;2023-07-13T02:14:15;16.50;99.90
25482;DHT22;13395;50.752;4.268;2023-07-13T02:16:41;16.40;99.90
25482;DHT22;13395;50.752;4.268;2023-07-13T02:19:07;16.40;99.90
25482;DHT22;13395;50.752;4.268;2023-07-13T02:21:33;16.30;99.90
25482;DHT22;13395;50.752;4.268;2023-07-13T02:23:59;16.30;99.90
25482;DHT22;13395;50.752;4.268;2023-07-13T02:26:26;16.30;99.90
25482;DHT22;13395;50.752;4.268;2023-07-13T02:28:52;16.30;99.90
25482;DHT22;13395;50.752;4.268;2023-07-13T02:31:18;16.40;99.90
25482;DHT22;13395;50.752;4.268;2023-07-13T02:33:44;16.40;99.90
25482;DHT22;13395;50.752;4.268;2023-07-13T02:36:10;16.30;99.90
25482;DHT22;13395;50.752;4.268;2023-07-13T02:38:37;16.30;99.90
25482;DHT22;13395;50.752;4.268;2023-07-13T02:41:06;16.30;99.90
25482;DHT22;13395;50.752;4.268;2023-07-13T02:43:33;16.30;99.90
25482;DHT22;13395;50.752;4.268;2023-07-13T02:45:59;16.30;99.90
25482;DHT22;13395;50.752;4.268;2023-07-13T02:48:29;16.30;99.90
25482;DHT22;13395;50.752;4.268;2023-07-13T02:50:55;16.30;99.90
25482;DHT22;13395;50.752;4.268;2023-07-13T02:53:21;16.20;99.90
25482;DHT22;13395;50.752;4.268;2023-07-13T02:55:47;16.20;99.90
25482;DHT22;13395;50.752;4.268;2023-07-13T02:58:13;16.20;99.90
25482;DHT22;13395;50.752;4.268;2023-07-13T03:00:43;16.20;99.90
25482;DHT22;13395;50.752;4.268;2023-07-13T03:03:09;16.10;99.90
25482;DHT22;13395;50.752;4.268;2023-07-13T03:05:37;16.10;99.90
25482;DHT22;13395;50.752;4.268;2023-07-13T03:08:03;16.00;99.90
25482;DHT22;13395;50.752;4.268;2023-07-13T03:10:29;16.00;99.90
25482;DHT22;13395;50.752;4.268;2023-07-13T03:12:55;16.00;99.90
25482;DHT22;13395;50.752;4.268;2023-07-13T03:15:21;16.10;99.90
25482;DHT22;13395;50.752;4.268;2023-07-13T03:17:46;16.10;99.90
25482;DHT22;13395;50.752;4.268;2023-07-13T03:20:12;16.10;99.90
25482;DHT22;13395;50.752;4.268;2023-07-13T03:22:38;16.10;99.90
25482;DHT22;13395;50.752;4.268;2023-07-13T03:25:04;16.10;99.90
25482;DHT22;13395;50.752;4.268;2023-07-13T03:27:30;16.00;99.90
25482;DHT22;13395;50.752;4.268;2023-07-13T03:29:56;16.00;99.90
25482;DHT22;13395;50.752;4.268;2023-07-13T03:32:21;16.00;99.90
25482;DHT22;13395;50.752;4.268;2023-07-13T03:34:47;16.00;99.90
25482;DHT22;13395;50.752;4.268;2023-07-13T03:37:13;16.00;99.90
25482;DHT22;13395;50.752;4.268;2023-07-13T03:39:39;16.00;99.90
25482;DHT22;13395;50.752;4.268;2023-07-13T03:42:05;16.00;99.90
25482;DHT22;13395;50.752;4.268;2023-07-13T03:44:30;15.90;99.90
25482;DHT22;13395;50.752;4.268;2023-07-13T03:46:56;15.90;99.90
25482;DHT22;13395;50.752;4.268;2023-07-13T03:49:22;15.90;99.90
25482;DHT22;13395;50.752;4.268;2023-07-13T03:51:48;16.00;99.90
25482;DHT22;13395;50.752;4.268;2023-07-13T03:54:13;16.00;99.90
25482;DHT22;13395;50.752;4.268;2023-07-13T03:56:39;16.10;99.90
25482;DHT22;13395;50.752;4.268;2023-07-13T03:59:05;16.10;99.90
25482;DHT22;13395;50.752;4.268;2023-07-13T04:01:31;16.10;99.90
25482;DHT22;13395;50.752;4.268;2023-07-13T04:03:57;16.20;99.90
25482;DHT22;13395;50.752;4.268;2023-07-13T04:06:27;16.20;99.90
25482;DHT22;13395;50.752;4.268;2023-07-13T04:08:56;16.30;99.90
25482;DHT22;13395;50.752;4.268;2023-07-13T04:11:23;16.40;99.90
25482;DHT22;13395;50.752;4.268;2023-07-13T04:13:50;16.40;99.90
25482;DHT22;13395;50.752;4.268;2023-07-13T04:16:17;16.50;99.90
25482;DHT22;13395;50.752;4.268;2023-07-13T04:18:44;16.50;99.90
25482;DHT22;13395;50.752;4.268;2023-07-13T04:21:10;16.50;99.90
25482;DHT22;13395;50.752;4.268;2023-07-13T04:23:36;16.60;99.90
25482;DHT22;13395;50.752;4.268;2023-07-13T04:26:02;16.60;99.90
25482;DHT22;13395;50.752;4.268;2023-07-13T04:28:28;16.70;99.90
25482;DHT22;13395;50.752;4.268;2023-07-13T04:30:54;16.70;99.90
25482;DHT22;13395;50.752;4.268;2023-07-13T04:33:21;16.70;99.90
25482;DHT22;13395;50.752;4.268;2023-07-13T04:35:49;16.70;99.90
25482;DHT22;13395;50.752;4.268;2023-07-13T04:38:15;16.80;99.90
25482;DHT22;13395;50.752;4.268;2023-07-13T04:40:51;16.80;99.90
25482;DHT22;13395;50.752;4.268;2023-07-13T04:43:17;16.90;99.90
25482;DHT22;13395;50.752;4.268;2023-07-13T04:45:43;17.00;99.90
25482;DHT22;13395;50.752;4.268;2023-07-13T04:48:09;17.00;99.90
25482;DHT22;13395;50.752;4.268;2023-07-13T04:50:38;17.00;99.90
25482;DHT22;13395;50.752;4.268;2023-07-13T04:53:04;17.00;99.90
25482;DHT22;13395;50.752;4.268;2023-07-13T04:55:30;17.10;99.90
25482;DHT22;13395;50.752;4.268;2023-07-13T04:57:56;17.10;99.90
25482;DHT22;13395;50.752;4.268;2023-07-13T05:00:24;17.20;99.90
25482;DHT22;13395;50.752;4.268;2023-07-13T05:02:50;17.20;99.90
25482;DHT22;13395;50.752;4.268;2023-07-13T05:05:16;17.30;99.90
25482;DHT22;13395;50.752;4.268;2023-07-13T05:07:42;17.40;99.90
25482;DHT22;13395;50.752;4.268;2023-07-13T05:10:08;17.30;99.90
25482;DHT22;13395;50.752;4.268;2023-07-13T05:12:35;17.30;99.90
25482;DHT22;13395;50.752;4.268;2023-07-13T05:15:02;17.30;99.90
25482;DHT22;13395;50.752;4.268;2023-07-13T05:17:28;17.30;99.90
25482;DHT22;13395;50.752;4.268;2023-07-13T05:19:54;17.50;99.90
25482;DHT22;13395;50.752;4.268;2023-07-13T05:22:21;17.60;99.90
25482;DHT22;13395;50.752;4.268;2023-07-13T05:24:46;17.80;99.90
25482;DHT22;13395;50.752;4.268;2023-07-13T05:27:12;18.20;99.90
25482;DHT22;13395;50.752;4.268;2023-07-13T05:29:38;18.30;99.90
25482;DHT22;13395;50.752;4.268;2023-07-13T05:32:04;18.30;99.90
25482;DHT22;13395;50.752;4.268;2023-07-13T05:34:29;18.20;99.90
25482;DHT22;13395;50.752;4.268;2023-07-13T05:36:55;18.10;99.90
25482;DHT22;13395;50.752;4.268;2023-07-13T05:39:21;18.10;99.90
25482;DHT22;13395;50.752;4.268;2023-07-13T05:41:47;18.10;99.90
25482;DHT22;13395;50.752;4.268;2023-07-13T05:44:12;18.20;99.90
25482;DHT22;13395;50.752;4.268;2023-07-13T05:46:38;18.30;99.90
25482;DHT22;13395;50.752;4.268;2023-07-13T05:49:04;18.30;99.90
25482;DHT22;13395;50.752;4.268;2023-07-13T05:51:30;18.30;99.90
25482;DHT22;13395;50.752;4.268;2023-07-13T05:53:55;18.30;99.90
25482;DHT22;13395;50.752;4.268;2023-07-13T05:56:21;18.30;99.90
25482;DHT22;13395;50.752;4.268;2023-07-13T05:58:48;18.40;99.90
25482;DHT22;13395;50.752;4.268;2023-07-13T06:01:15;18.30;99.90
25482;DHT22;13395;50.752;4.268;2023-07-13T06:03:41;18.30;99.90
25482;DHT22;13395;50.752;4.268;2023-07-13T06:06:08;18.30;99.90
25482;DHT22;13395;50.752;4.268;2023-07-13T06:08:35;18.40;99.90
25482;DHT22;13395;50.752;4.268;2023-07-13T06:11:06;18.50;99.90
25482;DHT22;13395;50.752;4.268;2023-07-13T06:13:33;18.70;99.90
25482;DHT22;13395;50.752;4.268;2023-07-13T06:15:59;18.80;99.90
25482;DHT22;13395;50.752;4.268;2023-07-13T06:18:25;18.90;99.90
25482;DHT22;13395;50.752;4.268;2023-07-13T06:20:51;19.10;99.90
25482;DHT22;13395;50.752;4.268;2023-07-13T06:23:16;19.10;99.90
25482;DHT22;13395;50.752;4.268;2023-07-13T06:25:43;19.20;99.90
25482;DHT22;13395;50.752;4.268;2023-07-13T06:28:08;19.20;99.90
25482;DHT22;13395;50.752;4.268;2023-07-13T06:30:34;19.30;99.90
25482;DHT22;13395;50.752;4.268;2023-07-13T06:33:00;19.20;99.90
25482;DHT22;13395;50.752;4.268;2023-07-13T06:35:25;19.20;99.90
25482;DHT22;13395;50.752;4.268;2023-07-13T06:37:51;19.30;99.90
25482;DHT22;13395;50.752;4.268;2023-07-13T06:40:17;19.40;99.90
25482;DHT22;13395;50.752;4.268;2023-07-13T06:42:43;19.40;99.90
25482;DHT22;13395;50.752;4.268;2023-07-13T06:45:09;19.50;99.90
25482;DHT22;13395;50.752;4.268;2023-07-13T06:47:34;19.50;99.90
25482;DHT22;13395;50.752;4.268;2023-07-13T06:50:00;19.40;99.90
25482;DHT22;13395;50.752;4.268;2023-07-13T06:52:26;19.40;99.90
25482;DHT22;13395;50.752;4.268;2023-07-13T06:54:52;19.40;99.90
25482;DHT22;13395;50.752;4.268;2023-07-13T06:57:17;19.50;99.90
25482;DHT22;13395;50.752;4.268;2023-07-13T06:59:43;19.60;99.90
25482;DHT22;13395;50.752;4.268;2023-07-13T07:02:10;19.70;99.90
25482;DHT22;13395;50.752;4.268;2023-07-13T07:04:36;19.70;99.90
25482;DHT22;13395;50.752;4.268;2023-07-13T07:07:02;19.80;99.90
25482;DHT22;13395;50.752;4.268;2023-07-13T07:09:27;19.80;99.90
25482;DHT22;13395;50.752;4.268;2023-07-13T07:11:55;19.80;99.90
25482;DHT22;13395;50.752;4.268;2023-07-13T07:14:21;19.70;99.90
25482;DHT22;13395;50.752;4.268;2023-07-13T07:16:47;19.70;99.90
25482;DHT22;13395;50.752;4.268;2023-07-13T07:19:12;19.70;99.90
25482;DHT22;13395;50.752;4.268;2023-07-13T07:21:38;19.80;99.90
25482;DHT22;13395;50.752;4.268;2023-07-13T07:24:04;19.80;99.90
25482;DHT22;13395;50.752;4.268;2023-07-13T07:26:30;20.00;99.90
25482;DHT22;13395;50.752;4.268;2023-07-13T07:28:56;20.20;99.90
25482;DHT22;13395;50.752;4.268;2023-07-13T07:31:22;20.40;99.90
25482;DHT22;13395;50.752;4.268;2023-07-13T07:33:47;20.50;99.90
25482;DHT22;13395;50.752;4.268;2023-07-13T07:36:15;20.90;99.90
25482;DHT22;13395;50.752;4.268;2023-07-13T07:38:41;21.20;99.90
25482;DHT22;13395;50.752;4.268;2023-07-13T07:41:07;21.60;99.90
25482;DHT22;13395;50.752;4.268;2023-07-13T07:43:33;21.70;99.90
25482;DHT22;13395;50.752;4.268;2023-07-13T07:45:59;22.00;99.90
25482;DHT22;13395;50.752;4.268;2023-07-13T07:48:25;22.60;99.90
25482;DHT22;13395;50.752;4.268;2023-07-13T07:50:51;23.20;99.90
25482;DHT22;13395;50.752;4.268;2023-07-13T07:53:16;23.80;99.90
25482;DHT22;13395;50.752;4.268;2023-07-13T07:55:42;24.00;99.90
25482;DHT22;13395;50.752;4.268;2023-07-13T07:58:08;23.90;99.90
25482;DHT22;13395;50.752;4.268;2023-07-13T08:00:34;23.70;99.90
25482;DHT22;13395;50.752;4.268;2023-07-13T08:03:01;24.00;99.90
25482;DHT22;13395;50.752;4.268;2023-07-13T08:05:27;24.80;99.90
25482;DHT22;13395;50.752;4.268;2023-07-13T08:07:53;26.20;99.90
25482;DHT22;13395;50.752;4.268;2023-07-13T08:10:20;27.10;99.00
25482;DHT22;13395;50.752;4.268;2023-07-13T08:12:45;27.40;97.30
25482;DHT22;13395;50.752;4.268;2023-07-13T08:15:14;27.00;97.10
25482;DHT22;13395;50.752;4.268;2023-07-13T08:17:40;26.90;96.50
25482;DHT22;13395;50.752;4.268;2023-07-13T08:20:07;26.60;96.70
25482;DHT22;13395;50.752;4.268;2023-07-13T08:22:34;26.30;97.00
25482;DHT22;13395;50.752;4.268;2023-07-13T08:25:01;25.90;97.80
25482;DHT22;13395;50.752;4.268;2023-07-13T08:27:28;25.60;98.90
25482;DHT22;13395;50.752;4.268;2023-07-13T08:29:54;25.30;98.70
25482;DHT22;13395;50.752;4.268;2023-07-13T08:32:21;25.20;99.20
25482;DHT22;13395;50.752;4.268;2023-07-13T08:34:47;26.10;98.40
25482;DHT22;13395;50.752;4.268;2023-07-13T08:37:13;27.80;96.60
25482;DHT22;13395;50.752;4.268;2023-07-13T08:39:39;28.30;94.20
25482;DHT22;13395;50.752;4.268;2023-07-13T08:42:12;28.10;92.50
25482;DHT22;13395;50.752;4.268;2023-07-13T08:45:07;27.50;93.90
25482;DHT22;13395;50.752;4.268;2023-07-13T08:47:39;28.00;92.70
25482;DHT22;13395;50.752;4.268;2023-07-13T08:50:11;28.40;92.40
25482;DHT22;13395;50.752;4.268;2023-07-13T08:52:47;28.30;91.80
25482;DHT22;13395;50.752;4.268;2023-07-13T08:55:18;28.40;92.20
25482;DHT22;13395;50.752;4.268;2023-07-13T08:57:50;29.50;90.10
25482;DHT22;13395;50.752;4.268;2023-07-13T09:00:18;29.60;89.00
25482;DHT22;13395;50.752;4.268;2023-07-13T09:02:58;29.30;88.20
25482;DHT22;13395;50.752;4.268;2023-07-13T09:05:29;28.90;89.50
25482;DHT22;13395;50.752;4.268;2023-07-13T09:10:45;27.40;90.90
25482;DHT22;13395;50.752;4.268;2023-07-13T09:15:48;27.40;92.10
25482;DHT22;13395;50.752;4.268;2023-07-13T09:21:20;29.50;86.60
25482;DHT22;13395;50.752;4.268;2023-07-13T09:23:53;29.30;86.40
25482;DHT22;13395;50.752;4.268;2023-07-13T09:26:21;30.00;88.20
25482;DHT22;13395;50.752;4.268;2023-07-13T09:29:10;30.30;84.40
25482;DHT22;13395;50.752;4.268;2023-07-13T09:31:49;30.20;84.30
25482;DHT22;13395;50.752;4.268;2023-07-13T09:34:17;29.90;84.80
25482;DHT22;13395;50.752;4.268;2023-07-13T09:36:43;30.20;82.50
25482;DHT22;13395;50.752;4.268;2023-07-13T09:47:21;31.00;82.70
25482;DHT22;13395;50.752;4.268;2023-07-13T09:50:00;32.20;78.90
25482;DHT22;13395;50.752;4.268;2023-07-13T09:52:27;32.80;74.80
25482;DHT22;13395;50.752;4.268;2023-07-13T09:54:54;32.80;71.50
25482;DHT22;13395;50.752;4.268;2023-07-13T09:57:26;32.60;73.50
25482;DHT22;13395;50.752;4.268;2023-07-13T09:59:54;31.90;73.60
25482;DHT22;13395;50.752;4.268;2023-07-13T10:02:35;32.00;75.40
25482;DHT22;13395;50.752;4.268;2023-07-13T10:07:29;31.80;73.30
25482;DHT22;13395;50.752;4.268;2023-07-13T10:09:56;31.00;73.30
25482;DHT22;13395;50.752;4.268;2023-07-13T10:12:24;30.80;75.00
25482;DHT22;13395;50.752;4.268;2023-07-13T10:14:59;31.30;73.80
25482;DHT22;13395;50.752;4.268;2023-07-13T10:17:32;31.40;73.20
25482;DHT22;13395;50.752;4.268;2023-07-13T10:20:04;32.20;73.60
25482;DHT22;13395;50.752;4.268;2023-07-13T10:22:45;32.50;69.60
25482;DHT22;13395;50.752;4.268;2023-07-13T10:25:25;32.50;71.10
25482;DHT22;13395;50.752;4.268;2023-07-13T10:27:53;33.10;72.10
25482;DHT22;13395;50.752;4.268;2023-07-13T10:30:21;32.80;70.50
25482;DHT22;13395;50.752;4.268;2023-07-13T10:32:49;32.70;71.20
25482;DHT22;13395;50.752;4.268;2023-07-13T10:35:17;32.50;69.50
25482;DHT22;13395;50.752;4.268;2023-07-13T10:37:52;32.30;70.40
25482;DHT22;13395;50.752;4.268;2023-07-13T10:40:31;32.40;69.60
25482;DHT22;13395;50.752;4.268;2023-07-13T10:42:59;32.40;69.60
25482;DHT22;13395;50.752;4.268;2023-07-13T10:45:29;31.60;68.70
25482;DHT22;13395;50.752;4.268;2023-07-13T10:47:56;30.20;71.00
25482;DHT22;13395;50.752;4.268;2023-07-13T10:50:24;29.60;72.50
25482;DHT22;13395;50.752;4.268;2023-07-13T10:52:52;29.20;73.70
25482;DHT22;13395;50.752;4.268;2023-07-13T10:58:22;29.80;75.40
25482;DHT22;13395;50.752;4.268;2023-07-13T11:03:22;29.60;74.40
25482;DHT22;13395;50.752;4.268;2023-07-13T11:05:49;30.10;73.40
25482;DHT22;13395;50.752;4.268;2023-07-13T11:08:31;30.30;71.50
25482;DHT22;13395;50.752;4.268;2023-07-13T11:10:58;30.60;72.90
25482;DHT22;13395;50.752;4.268;2023-07-13T11:16:42;31.30;69.70
25482;DHT22;13395;50.752;4.268;2023-07-13T11:19:26;31.30;69.80
25482;DHT22;13395;50.752;4.268;2023-07-13T11:30:31;31.50;70.70
25482;DHT22;13395;50.752;4.268;2023-07-13T11:33:11;30.70;71.00
25482;DHT22;13395;50.752;4.268;2023-07-13T11:36:05;29.70;71.60
25482;DHT22;13395;50.752;4.268;2023-07-13T11:38:37;28.90;74.10
25482;DHT22;13395;50.752;4.268;2023-07-13T11:43:43;28.20;75.00
25482;DHT22;13395;50.752;4.268;2023-07-13T11:46:14;27.60;78.20
25482;DHT22;13395;50.752;4.268;2023-07-13T11:48:40;27.20;78.40
25482;DHT22;13395;50.752;4.268;2023-07-13T11:51:07;26.90;79.10
25482;DHT22;13395;50.752;4.268;2023-07-13T11:53:45;26.60;81.00
25482;DHT22;13395;50.752;4.268;2023-07-13T11:56:11;26.60;83.60
25482;DHT22;13395;50.752;4.268;2023-07-13T11:58:38;26.70;80.40
25482;DHT22;13395;50.752;4.268;2023-07-13T12:01:04;26.90;81.20
25482;DHT22;13395;50.752;4.268;2023-07-13T12:03:32;27.00;80.90
25482;DHT22;13395;50.752;4.268;2023-07-13T12:06:03;26.70;79.10
25482;DHT22;13395;50.752;4.268;2023-07-13T12:08:31;26.60;79.50
25482;DHT22;13395;50.752;4.268;2023-07-13T12:11:15;26.60;78.90
25482;DHT22;13395;50.752;4.268;2023-07-13T12:13:40;26.70;79.80
25482;DHT22;13395;50.752;4.268;2023-07-13T12:16:22;26.80;77.70
25482;DHT22;13395;50.752;4.268;2023-07-13T12:18:52;26.70;78.90
25482;DHT22;13395;50.752;4.268;2023-07-13T12:21:19;26.30;79.30
25482;DHT22;13395;50.752;4.268;2023-07-13T12:23:48;26.10;78.90
25482;DHT22;13395;50.752;4.268;2023-07-13T12:26:15;26.00;80.40
25482;DHT22;13395;50.752;4.268;2023-07-13T12:28:52;25.70;79.90
25482;DHT22;13395;50.752;4.268;2023-07-13T12:31:41;25.30;81.20
25482;DHT22;13395;50.752;4.268;2023-07-13T12:34:09;25.10;82.30
25482;DHT22;13395;50.752;4.268;2023-07-13T12:36:45;24.90;83.30
25482;DHT22;13395;50.752;4.268;2023-07-13T12:39:17;24.20;90.40
25482;DHT22;13395;50.752;4.268;2023-07-13T12:41:45;23.60;92.90
25482;DHT22;13395;50.752;4.268;2023-07-13T12:44:16;23.30;94.70
25482;DHT22;13395;50.752;4.268;2023-07-13T12:46:54;23.10;96.30
25482;DHT22;13395;50.752;4.268;2023-07-13T12:49:27;22.80;98.40
25482;DHT22;13395;50.752;4.268;2023-07-13T12:51:59;22.90;99.60
25482;DHT22;13395;50.752;4.268;2023-07-13T12:54:25;23.10;99.90
25482;DHT22;13395;50.752;4.268;2023-07-13T12:56:53;23.30;99.90
25482;DHT22;13395;50.752;4.268;2023-07-13T12:59:21;23.80;99.90
25482;DHT22;13395;50.752;4.268;2023-07-13T13:01:48;24.60;99.60
25482;DHT22;13395;50.752;4.268;2023-07-13T13:04:15;24.90;98.20
25482;DHT22;13395;50.752;4.268;2023-07-13T13:06:41;25.50;97.80
25482;DHT22;13395;50.752;4.268;2023-07-13T13:09:13;26.20;96.10
25482;DHT22;13395;50.752;4.268;2023-07-13T13:11:39;26.30;94.10
25482;DHT22;13395;50.752;4.268;2023-07-13T13:14:05;26.40;94.10
25482;DHT22;13395;50.752;4.268;2023-07-13T13:16:44;26.20;93.90
25482;DHT22;13395;50.752;4.268;2023-07-13T13:19:41;26.40;94.70
25482;DHT22;13395;50.752;4.268;2023-07-13T13:22:08;27.00;93.40
25482;DHT22;13395;50.752;4.268;2023-07-13T13:24:34;27.20;93.80
25482;DHT22;13395;50.752;4.268;2023-07-13T13:27:00;27.40;92.50
25482;DHT22;13395;50.752;4.268;2023-07-13T13:29:27;27.10;92.40
25482;DHT22;13395;50.752;4.268;2023-07-13T13:31:54;27.50;92.20
25482;DHT22;13395;50.752;4.268;2023-07-13T13:34:21;27.70;90.90
25482;DHT22;13395;50.752;4.268;2023-07-13T13:36:50;27.80;91.20
25482;DHT22;13395;50.752;4.268;2023-07-13T13:39:21;28.00;90.70
25482;DHT22;13395;50.752;4.268;2023-07-13T13:41:49;28.00;90.30
25482;DHT22;13395;50.752;4.268;2023-07-13T13:44:16;27.80;88.70
25482;DHT22;13395;50.752;4.268;2023-07-13T13:46:46;28.00;89.90
25482;DHT22;13395;50.752;4.268;2023-07-13T13:49:15;27.70;85.50
25482;DHT22;13395;50.752;4.268;2023-07-13T13:51:41;27.30;85.90
25482;DHT22;13395;50.752;4.268;2023-07-13T13:54:14;27.10;83.40
25482;DHT22;13395;50.752;4.268;2023-07-13T13:56:42;27.10;86.60
25482;DHT22;13395;50.752;4.268;2023-07-13T13:59:08;27.10;80.70
25482;DHT22;13395;50.752;4.268;2023-07-13T14:01:34;26.80;82.40
25482;DHT22;13395;50.752;4.268;2023-07-13T14:04:00;26.60;82.50
25482;DHT22;13395;50.752;4.268;2023-07-13T14:06:26;26.20;84.40
25482;DHT22;13395;50.752;4.268;2023-07-13T14:08:52;26.10;84.10
25482;DHT22;13395;50.752;4.268;2023-07-13T14:11:21;25.70;84.40
25482;DHT22;13395;50.752;4.268;2023-07-13T14:13:58;25.30;87.40
25482;DHT22;13395;50.752;4.268;2023-07-13T14:16:30;24.90;90.60
25482;DHT22;13395;50.752;4.268;2023-07-13T14:19:00;24.40;93.60
25482;DHT22;13395;50.752;4.268;2023-07-13T14:21:28;24.20;97.30
25482;DHT22;13395;50.752;4.268;2023-07-13T14:23:54;24.00;99.90
25482;DHT22;13395;50.752;4.268;2023-07-13T14:26:25;24.00;99.90
25482;DHT22;13395;50.752;4.268;2023-07-13T14:28:54;23.90;99.90
25482;DHT22;13395;50.752;4.268;2023-07-13T14:31:22;23.90;99.90
25482;DHT22;13395;50.752;4.268;2023-07-13T14:33:48;23.90;99.90
25482;DHT22;13395;50.752;4.268;2023-07-13T14:38:59;23.60;99.90
25482;DHT22;13395;50.752;4.268;2023-07-13T14:41:26;23.60;99.90
25482;DHT22;13395;50.752;4.268;2023-07-13T14:43:52;23.50;99.90
25482;DHT22;13395;50.752;4.268;2023-07-13T14:46:33;23.50;99.90
25482;DHT22;13395;50.752;4.268;2023-07-13T14:49:30;23.50;99.90
25482;DHT22;13395;50.752;4.268;2023-07-13T14:51:59;23.50;99.90
25482;DHT22;13395;50.752;4.268;2023-07-13T14:54:25;23.50;99.90
25482;DHT22;13395;50.752;4.268;2023-07-13T14:56:51;23.60;99.90
25482;DHT22;13395;50.752;4.268;2023-07-13T14:59:17;23.70;99.90
25482;DHT22;13395;50.752;4.268;2023-07-13T15:01:46;23.70;99.90
25482;DHT22;13395;50.752;4.268;2023-07-13T15:04:13;23.70;99.90
25482;DHT22;13395;50.752;4.268;2023-07-13T15:07:01;23.90;99.90
25482;DHT22;13395;50.752;4.268;2023-07-13T15:09:28;24.10;99.90
25482;DHT22;13395;50.752;4.268;2023-07-13T15:11:55;24.40;99.90
25482;DHT22;13395;50.752;4.268;2023-07-13T15:14:21;24.70;99.90
25482;DHT22;13395;50.752;4.268;2023-07-13T15:16:51;25.20;99.90
25482;DHT22;13395;50.752;4.268;2023-07-13T15:19:18;25.50;99.90
25482;DHT22;13395;50.752;4.268;2023-07-13T15:21:44;25.70;99.80
25482;DHT22;13395;50.752;4.268;2023-07-13T15:24:10;25.80;98.20
25482;DHT22;13395;50.752;4.268;2023-07-13T15:26:36;26.10;97.40
25482;DHT22;13395;50.752;4.268;2023-07-13T15:29:04;26.20;97.90
25482;DHT22;13395;50.752;4.268;2023-07-13T15:31:29;26.30;97.80
25482;DHT22;13395;50.752;4.268;2023-07-13T15:33:58;26.30;97.10
25482;DHT22;13395;50.752;4.268;2023-07-13T15:36:25;26.40;97.60
25482;DHT22;13395;50.752;4.268;2023-07-13T15:38:55;26.30;96.80
25482;DHT22;13395;50.752;4.268;2023-07-13T15:41:24;26.00;97.10
25482;DHT22;13395;50.752;4.268;2023-07-13T15:43:51;25.80;95.70
25482;DHT22;13395;50.752;4.268;2023-07-13T15:46:19;25.60;96.00
25482;DHT22;13395;50.752;4.268;2023-07-13T15:48:46;25.50;97.40
25482;DHT22;13395;50.752;4.268;2023-07-13T15:51:24;25.30;97.70
25482;DHT22;13395;50.752;4.268;2023-07-13T15:53:53;25.40;96.50
25482;DHT22;13395;50.752;4.268;2023-07-13T15:56:25;25.40;97.90
25482;DHT22;13395;50.752;4.268;2023-07-13T15:58:52;25.30;99.90
25482;DHT22;13395;50.752;4.268;2023-07-13T16:01:18;25.30;97.00
25482;DHT22;13395;50.752;4.268;2023-07-13T16:03:47;25.20;97.60
25482;DHT22;13395;50.752;4.268;2023-07-13T16:06:20;25.20;97.60
25482;DHT22;13395;50.752;4.268;2023-07-13T16:08:49;25.30;98.00
25482;DHT22;13395;50.752;4.268;2023-07-13T16:11:27;25.20;96.50
25482;DHT22;13395;50.752;4.268;2023-07-13T16:13:53;25.10;96.20
25482;DHT22;13395;50.752;4.268;2023-07-13T16:16:27;25.20;96.40
25482;DHT22;13395;50.752;4.268;2023-07-13T16:18:59;25.30;96.30
25482;DHT22;13395;50.752;4.268;2023-07-13T16:21:27;25.20;95.10